Time;durP1;ratioP1;P1;durP2;ratioP2;P2;SDS_P1;SDS_P2;PMS_P1;PMS_P2;Temp;Humidity;BMP_temperature;BMP_pressure;BME280_temperature;BME280_humidity;BME280_pressure;Samples;Min_cycle;Max_cycle;Signal;HPM_P1;HPM_P2
2021/08/26 00:06:04;;;;;;;12.25;5.70;;;17.90;99.90;;;;;;5032558;28;20044;-71
2021/08/26 00:08:32;;;;;;;13.20;5.25;;;17.90;99.90;;;;;;5031728;28;20025;-71
2021/08/26 00:10:58;;;;;;;10.77;5.90;;;17.90;99.90;;;;;;5031469;28;20026;-71
2021/08/26 00:13:24;;;;;;;13.88;5.18;;;17.90;99.90;;;;;;5032460;28;20040;-71
2021/08/26 00:15:50;;;;;;;13.25;5.38;;;17.90;99.90;;;;;;5032667;28;20109;-71
2021/08/26 00:18:22;;;;;;;12.15;5.00;;;17.80;99.90;;;;;;5031053;28;20049;-71
2021/08/26 00:20:52;;;;;;;11.45;5.03;;;17.80;99.90;;;;;;5031098;28;20048;-71
2021/08/26 00:23:22;;;;;;;13.98;5.53;;;17.80;99.90;;;;;;5032857;28;20147;-71
2021/08/26 00:25:49;;;;;;;13.23;5.68;;;17.70;99.90;;;;;;5031323;28;20025;-72
2021/08/26 00:28:16;;;;;;;14.88;6.38;;;17.70;99.90;;;;;;5031059;28;20045;-70
2021/08/26 00:30:42;;;;;;;14.25;5.88;;;17.70;99.90;;;;;;5031429;28;20072;-72
2021/08/26 00:33:08;;;;;;;9.88;5.20;;;17.70;99.90;;;;;;5039716;28;20036;-71
2021/08/26 00:35:34;;;;;;;12.43;5.88;;;17.70;99.90;;;;;;5051449;28;20032;-71
2021/08/26 00:38:01;;;;;;;13.90;6.15;;;17.60;99.90;;;;;;5032040;28;20029;-71
2021/08/26 00:40:27;;;;;;;12.40;5.40;;;17.60;99.90;;;;;;5032482;28;20033;-71
2021/08/26 00:42:52;;;;;;;11.82;5.90;;;17.60;99.90;;;;;;5031900;28;20037;-72
2021/08/26 00:45:18;;;;;;;10.25;4.85;;;17.50;99.90;;;;;;5032461;28;20033;-72
2021/08/26 00:47:46;;;;;;;14.90;5.82;;;17.40;99.90;;;;;;5032278;28;20507;-72
2021/08/26 00:50:16;;;;;;;13.05;5.70;;;17.40;99.90;;;;;;5031084;28;20029;-71
2021/08/26 00:52:42;;;;;;;12.52;5.45;;;17.50;99.90;;;;;;5030611;28;20087;-72
2021/08/26 00:55:09;;;;;;;10.82;5.32;;;17.50;99.90;;;;;;5030788;28;20029;-71
2021/08/26 00:57:36;;;;;;;10.15;5.63;;;17.50;99.90;;;;;;5031019;28;20410;-72
2021/08/26 01:00:12;;;;;;;9.48;4.45;;;17.40;99.90;;;;;;5014212;28;20029;-72
2021/08/26 01:03:13;;;;;;;9.85;4.78;;;17.30;99.90;;;;;;5030968;28;20061;-71
2021/08/26 01:06:15;;;;;;;13.10;5.10;;;17.30;99.90;;;;;;5031112;28;20038;-71
2021/08/26 01:09:19;;;;;;;17.02;5.82;;;17.30;99.90;;;;;;5060222;28;20124;-72
2021/08/26 01:11:47;;;;;;;14.20;5.45;;;17.30;99.90;;;;;;5042999;28;20052;-71
2021/08/26 01:14:15;;;;;;;11.15;5.35;;;17.40;99.90;;;;;;5050710;28;20044;-72
2021/08/26 01:16:41;;;;;;;16.23;5.15;;;17.30;99.90;;;;;;5050569;28;20489;-72
2021/08/26 01:19:07;;;;;;;11.60;5.13;;;17.30;99.90;;;;;;5050173;28;20062;-71
2021/08/26 01:21:33;;;;;;;12.13;5.13;;;17.20;99.90;;;;;;5055132;28;20363;-71
2021/08/26 01:24:16;;;;;;;11.77;5.22;;;17.20;99.90;;;;;;5055347;28;20043;-72
2021/08/26 01:26:53;;;;;;;12.10;5.28;;;17.20;99.90;;;;;;5054456;28;20057;-71
2021/08/26 01:29:21;;;;;;;11.45;5.18;;;17.20;99.90;;;;;;5054399;28;20033;-71
2021/08/26 01:31:47;;;;;;;11.20;5.65;;;17.10;99.90;;;;;;5053992;28;20028;-72
2021/08/26 01:34:20;;;;;;;13.43;5.72;;;17.10;99.90;;;;;;5054390;28;20048;-71
2021/08/26 01:36:47;;;;;;;13.05;5.60;;;17.00;99.90;;;;;;5054333;28;20076;-71
2021/08/26 01:39:16;;;;;;;16.73;6.32;;;17.00;99.90;;;;;;5053892;28;20095;-71
2021/08/26 01:41:54;;;;;;;11.50;5.80;;;16.80;99.90;;;;;;5055593;28;20033;-71
2021/08/26 01:44:27;;;;;;;9.95;5.32;;;16.70;99.90;;;;;;5055118;28;20040;-71
2021/08/26 01:47:03;;;;;;;14.05;5.95;;;16.70;99.90;;;;;;5055074;28;20029;-71
2021/08/26 01:49:29;;;;;;;13.50;5.60;;;16.60;99.90;;;;;;5053959;28;20029;-71
2021/08/26 01:51:54;;;;;;;10.55;5.90;;;16.80;99.90;;;;;;5055024;28;20037;-71
2021/08/26 01:54:20;;;;;;;10.32;5.55;;;16.70;99.90;;;;;;5054889;28;20029;-71
2021/08/26 01:56:47;;;;;;;16.13;6.53;;;16.70;99.90;;;;;;5054905;28;20036;-71
2021/08/26 01:59:13;;;;;;;12.65;5.78;;;16.90;99.90;;;;;;5055156;28;20063;-71
2021/08/26 02:01:39;;;;;;;19.05;5.93;;;17.00;99.90;;;;;;5055061;28;20025;-71
2021/08/26 02:04:05;;;;;;;10.65;5.63;;;17.00;99.90;;;;;;5053710;28;20079;-72
2021/08/26 02:06:31;;;;;;;10.02;5.15;;;17.00;99.90;;;;;;5054975;28;20033;-71
2021/08/26 02:08:57;;;;;;;11.75;5.80;;;17.10;99.90;;;;;;5053575;28;20025;-71
2021/08/26 02:11:22;;;;;;;11.13;5.53;;;17.10;99.90;;;;;;5053480;28;20127;-71
2021/08/26 02:13:48;;;;;;;10.98;5.45;;;17.10;99.90;;;;;;5070090;28;20033;-71
2021/08/26 02:16:15;;;;;;;10.70;5.70;;;17.10;99.90;;;;;;5053739;28;20025;-72
2021/08/26 02:18:45;;;;;;;13.07;5.68;;;17.10;99.90;;;;;;5054409;28;20052;-71
2021/08/26 02:21:11;;;;;;;11.45;5.22;;;17.00;99.90;;;;;;5053522;28;20056;-71
2021/08/26 02:23:37;;;;;;;12.02;5.82;;;17.00;99.90;;;;;;5054665;28;20029;-71
2021/08/26 02:26:03;;;;;;;11.13;6.57;;;17.10;99.90;;;;;;5053122;28;20503;-71
2021/08/26 02:28:28;;;;;;;9.88;6.22;;;17.10;99.90;;;;;;5053019;28;20026;-71
2021/08/26 02:30:54;;;;;;;15.15;7.63;;;17.10;99.90;;;;;;5052756;28;20029;-71
2021/08/26 02:33:20;;;;;;;13.15;7.15;;;17.00;99.90;;;;;;5053537;28;20039;-71
2021/08/26 02:35:46;;;;;;;17.25;7.53;;;16.90;99.90;;;;;;5054536;28;20033;-71
2021/08/26 02:38:12;;;;;;;12.30;6.88;;;16.90;99.90;;;;;;5053976;28;20037;-71
2021/08/26 02:40:38;;;;;;;12.15;6.65;;;16.80;99.90;;;;;;5053274;28;20075;-71
2021/08/26 02:43:04;;;;;;;11.68;7.25;;;17.00;99.90;;;;;;5053834;28;20111;-71
2021/08/26 02:45:30;;;;;;;14.38;7.22;;;17.00;99.90;;;;;;5052918;28;20109;-71
2021/08/26 02:47:55;;;;;;;13.38;7.22;;;16.90;99.90;;;;;;5052747;28;20025;-71
2021/08/26 02:50:21;;;;;;;11.40;7.07;;;16.90;99.90;;;;;;5052657;28;20029;-71
2021/08/26 02:52:47;;;;;;;14.25;7.80;;;17.00;99.90;;;;;;5054210;28;20068;-71
2021/08/26 02:55:13;;;;;;;13.32;7.28;;;17.00;99.90;;;;;;5053712;28;20029;-71
2021/08/26 02:57:38;;;;;;;13.88;7.53;;;17.00;99.90;;;;;;5052641;28;20067;-71
2021/08/26 03:00:06;;;;;;;17.10;8.70;;;16.90;99.90;;;;;;5052389;28;20025;-71
2021/08/26 03:02:32;;;;;;;15.50;8.43;;;17.00;99.90;;;;;;5054081;28;20079;-71
2021/08/26 03:04:58;;;;;;;17.70;9.00;;;16.90;99.90;;;;;;5052659;28;20049;-71
2021/08/26 03:07:24;;;;;;;21.23;8.32;;;17.00;99.90;;;;;;5053679;28;20079;-71
2021/08/26 03:09:50;;;;;;;17.58;8.88;;;17.00;99.90;;;;;;5053754;28;20040;-71
2021/08/26 03:12:15;;;;;;;16.50;8.20;;;17.00;99.90;;;;;;5053618;28;20033;-71
2021/08/26 03:14:41;;;;;;;14.25;7.88;;;17.00;99.90;;;;;;5052147;28;20044;-71
2021/08/26 03:17:07;;;;;;;14.88;7.63;;;16.90;99.90;;;;;;5052093;28;20134;-71
2021/08/26 03:19:33;;;;;;;12.55;7.72;;;16.90;99.90;;;;;;5053718;28;20388;-70
2021/08/26 03:21:58;;;;;;;15.95;9.23;;;17.00;99.90;;;;;;5053486;28;20025;-71
2021/08/26 03:24:24;;;;;;;18.70;8.10;;;17.00;99.90;;;;;;5052058;28;20170;-71
2021/08/26 03:26:50;;;;;;;13.60;8.75;;;17.10;99.90;;;;;;5053329;28;20025;-70
2021/08/26 03:29:16;;;;;;;12.85;7.60;;;17.20;99.90;;;;;;5051639;28;20033;-71
2021/08/26 03:31:41;;;;;;;16.30;8.73;;;17.10;99.90;;;;;;5053178;28;20033;-70
2021/08/26 03:34:07;;;;;;;16.35;9.40;;;17.20;99.90;;;;;;5053103;28;20377;-70
2021/08/26 03:36:33;;;;;;;15.55;9.00;;;17.10;99.90;;;;;;5053129;28;20052;-71
2021/08/26 03:38:58;;;;;;;16.70;8.75;;;17.20;99.90;;;;;;5052817;28;20114;-70
2021/08/26 03:41:24;;;;;;;14.15;8.18;;;17.10;99.90;;;;;;5053061;28;20028;-71
2021/08/26 03:43:51;;;;;;;15.15;8.60;;;17.10;99.90;;;;;;5051817;28;20101;-71
2021/08/26 03:46:17;;;;;;;15.00;7.60;;;17.10;99.90;;;;;;5051568;28;20116;-71
2021/08/26 03:48:43;;;;;;;14.95;7.47;;;17.10;99.90;;;;;;5051712;28;20120;-70
2021/08/26 03:51:09;;;;;;;11.93;7.03;;;17.00;99.90;;;;;;5052925;28;20453;-70
2021/08/26 03:53:34;;;;;;;12.60;7.25;;;17.00;99.90;;;;;;5052711;28;20485;-71
2021/08/26 03:56:01;;;;;;;12.15;7.18;;;17.00;99.90;;;;;;5044713;28;20029;-70
2021/08/26 03:58:27;;;;;;;14.70;8.13;;;17.00;99.90;;;;;;5029126;28;20032;-70
2021/08/26 04:00:52;;;;;;;12.20;7.22;;;17.00;99.90;;;;;;5033003;28;20037;-73
2021/08/26 04:03:18;;;;;;;15.02;8.07;;;17.00;99.90;;;;;;5035331;28;20466;-72
2021/08/26 04:05:44;;;;;;;12.65;7.72;;;16.80;99.90;;;;;;5031628;28;20033;-73
2021/08/26 04:08:09;;;;;;;13.98;7.70;;;16.80;99.90;;;;;;5031036;28;20029;-72
2021/08/26 04:10:36;;;;;;;12.25;7.65;;;16.80;99.90;;;;;;5032409;28;20412;-71
2021/08/26 04:13:02;;;;;;;14.25;8.77;;;16.90;99.90;;;;;;5031180;28;20033;-70
2021/08/26 04:15:28;;;;;;;14.00;9.27;;;16.90;99.90;;;;;;5032426;28;20048;-69
2021/08/26 04:17:54;;;;;;;17.27;8.68;;;16.90;99.90;;;;;;5032558;28;20049;-68
2021/08/26 04:20:19;;;;;;;14.93;8.90;;;16.90;99.90;;;;;;5032494;28;20132;-69
2021/08/26 04:22:45;;;;;;;15.55;9.90;;;17.00;99.90;;;;;;5032396;28;20026;-68
2021/08/26 04:25:11;;;;;;;15.95;9.55;;;16.90;99.90;;;;;;5031198;28;20038;-69
2021/08/26 04:27:37;;;;;;;16.08;10.45;;;16.90;99.90;;;;;;5032485;28;20116;-69
2021/08/26 04:30:06;;;;;;;16.95;10.07;;;16.80;99.90;;;;;;5030955;28;20032;-70
2021/08/26 04:32:32;;;;;;;14.65;9.60;;;16.90;99.90;;;;;;5032515;28;20034;-70
2021/08/26 04:34:58;;;;;;;18.27;11.32;;;17.00;99.90;;;;;;5032323;28;20094;-72
2021/08/26 04:37:23;;;;;;;16.90;10.75;;;17.00;99.90;;;;;;5032449;28;20433;-72
2021/08/26 04:39:49;;;;;;;18.75;10.02;;;17.00;99.90;;;;;;5031210;28;20032;-71
2021/08/26 04:42:15;;;;;;;15.57;10.00;;;16.90;99.90;;;;;;5031837;28;20393;-72
2021/08/26 04:44:41;;;;;;;14.43;10.15;;;16.90;99.90;;;;;;5047793;28;20548;-72
2021/08/26 04:47:06;;;;;;;18.35;9.63;;;16.80;99.90;;;;;;5032242;28;20370;-73
2021/08/26 04:49:32;;;;;;;17.75;10.43;;;16.70;99.90;;;;;;5023463;28;20133;-73
2021/08/26 04:51:58;;;;;;;15.18;10.52;;;16.60;99.90;;;;;;5012206;28;20041;-73
2021/08/26 04:54:24;;;;;;;19.55;11.13;;;16.60;99.90;;;;;;5027956;28;20026;-72
2021/08/26 04:56:52;;;;;;;17.05;10.60;;;16.60;99.90;;;;;;5025644;28;20037;-73
2021/08/26 04:59:17;;;;;;;20.33;10.65;;;16.50;99.90;;;;;;5034683;28;20037;-74
2021/08/26 05:01:43;;;;;;;18.15;11.30;;;16.40;99.90;;;;;;5036008;28;20028;-71
2021/08/26 05:04:09;;;;;;;20.70;12.02;;;16.40;99.90;;;;;;5036113;28;20028;-74
2021/08/26 05:06:35;;;;;;;22.40;11.02;;;16.40;99.90;;;;;;5024747;28;20038;-73
2021/08/26 05:09:01;;;;;;;20.80;10.70;;;16.30;99.90;;;;;;5008149;28;20038;-74
2021/08/26 05:11:26;;;;;;;16.58;10.88;;;16.20;99.90;;;;;;5016173;28;20026;-73
2021/08/26 05:13:52;;;;;;;17.45;11.50;;;16.30;99.90;;;;;;5016185;28;20034;-73
2021/08/26 05:16:18;;;;;;;19.35;12.48;;;16.20;99.90;;;;;;5016116;28;20084;-73
2021/08/26 05:18:44;;;;;;;19.65;12.85;;;16.10;99.90;;;;;;5015802;28;20077;-72
2021/08/26 05:21:10;;;;;;;20.40;13.88;;;16.00;99.90;;;;;;5014840;28;20117;-72
2021/08/26 05:23:36;;;;;;;24.33;15.10;;;15.90;99.90;;;;;;5016195;28;20034;-72
2021/08/26 05:26:03;;;;;;;21.13;13.57;;;15.80;99.90;;;;;;5014602;28;20030;-72
2021/08/26 05:28:29;;;;;;;22.70;13.90;;;15.70;99.90;;;;;;5016074;28;20096;-73
2021/08/26 05:30:54;;;;;;;22.88;14.52;;;15.70;99.90;;;;;;5015973;28;20030;-72
2021/08/26 05:33:20;;;;;;;24.73;14.82;;;15.60;99.90;;;;;;5015787;28;20481;-60
2021/08/26 05:35:46;;;;;;;24.88;15.63;;;15.60;99.90;;;;;;5015465;28;20030;-60
2021/08/26 05:38:13;;;;;;;24.75;14.73;;;15.60;99.90;;;;;;5015638;28;20045;-60
2021/08/26 05:40:39;;;;;;;28.77;16.10;;;15.60;99.90;;;;;;5014819;28;20026;-60
2021/08/26 05:43:04;;;;;;;23.48;14.55;;;15.60;99.90;;;;;;5014862;28;20030;-61
2021/08/26 05:45:30;;;;;;;24.20;15.38;;;15.60;99.90;;;;;;5015771;28;20040;-61
2021/08/26 05:47:59;;;;;;;24.98;15.38;;;15.60;99.90;;;;;;5015543;28;20036;-61
2021/08/26 05:50:25;;;;;;;25.92;14.95;;;15.60;99.90;;;;;;5015180;28;20034;-61
2021/08/26 05:52:52;;;;;;;23.95;14.60;;;15.60;99.90;;;;;;5030654;28;20041;-60
2021/08/26 05:55:18;;;;;;;24.02;14.98;;;15.60;99.90;;;;;;5015129;28;20112;-61
2021/08/26 05:57:45;;;;;;;25.42;14.63;;;15.50;99.90;;;;;;5015248;28;20036;-60
2021/08/26 06:00:12;;;;;;;21.42;14.43;;;15.40;99.90;;;;;;5017271;28;20026;-60
2021/08/26 06:02:39;;;;;;;25.92;14.13;;;15.30;99.90;;;;;;5015270;28;20394;-59
2021/08/26 06:05:06;;;;;;;21.33;13.52;;;15.40;99.90;;;;;;5015181;28;20121;-59
2021/08/26 06:07:32;;;;;;;20.05;13.20;;;15.30;99.90;;;;;;5012151;28;20049;-60
2021/08/26 06:09:57;;;;;;;19.27;13.10;;;15.20;99.90;;;;;;5013602;28;20030;-60
2021/08/26 06:12:23;;;;;;;24.58;15.10;;;15.20;99.90;;;;;;5014838;28;20033;-59
2021/08/26 06:14:49;;;;;;;25.58;15.32;;;15.10;99.90;;;;;;5014990;28;20463;-60
2021/08/26 06:17:15;;;;;;;39.05;16.83;;;15.10;99.90;;;;;;5014705;28;20057;-60
2021/08/26 06:19:41;;;;;;;26.77;15.48;;;15.00;99.90;;;;;;5014656;28;20041;-61
2021/08/26 06:22:06;;;;;;;41.67;17.88;;;15.20;99.90;;;;;;5014586;28;20030;-59
2021/08/26 06:24:32;;;;;;;28.80;15.75;;;15.20;99.90;;;;;;5014773;28;20076;-59
2021/08/26 06:27:01;;;;;;;25.92;16.52;;;15.20;99.90;;;;;;5014804;28;20033;-60
2021/08/26 06:29:27;;;;;;;22.77;14.07;;;15.30;99.90;;;;;;5014698;28;20121;-60
2021/08/26 06:31:53;;;;;;;22.48;14.05;;;15.10;99.90;;;;;;5014327;28;20520;-60
2021/08/26 06:34:19;;;;;;;22.52;14.98;;;15.10;99.90;;;;;;5014352;28;20042;-60
2021/08/26 06:36:45;;;;;;;26.00;15.10;;;15.10;99.90;;;;;;5014219;28;20029;-60
2021/08/26 06:39:10;;;;;;;23.30;14.93;;;15.00;99.90;;;;;;5014203;28;20525;-59
2021/08/26 06:41:36;;;;;;;20.67;13.80;;;15.10;99.90;;;;;;5014364;28;20391;-60
2021/08/26 06:44:02;;;;;;;23.60;14.68;;;15.10;99.90;;;;;;5014565;28;20037;-60
2021/08/26 06:46:28;;;;;;;23.92;15.02;;;15.10;99.90;;;;;;5014091;28;20038;-60
2021/08/26 06:48:55;;;;;;;24.58;15.73;;;14.90;99.90;;;;;;5014465;28;20030;-60
2021/08/26 06:51:22;;;;;;;25.13;14.98;;;14.80;99.90;;;;;;5014385;28;20184;-59
2021/08/26 06:53:48;;;;;;;21.42;14.48;;;14.90;99.90;;;;;;5014013;28;20038;-60
2021/08/26 06:56:15;;;;;;;25.05;16.15;;;14.80;99.90;;;;;;5013882;28;20026;-59
2021/08/26 06:58:41;;;;;;;24.10;14.30;;;14.80;99.90;;;;;;5013931;28;20046;-60
2021/08/26 07:01:07;;;;;;;23.45;15.07;;;14.70;99.90;;;;;;5013439;28;20042;-60
2021/08/26 07:03:34;;;;;;;23.10;14.57;;;14.80;99.90;;;;;;5014030;28;20029;-75
2021/08/26 07:05:59;;;;;;;21.85;14.25;;;14.70;99.90;;;;;;4996713;28;20066;-75
2021/08/26 07:08:25;;;;;;;20.65;13.70;;;14.80;99.90;;;;;;5012685;28;20450;-75
2021/08/26 07:10:51;;;;;;;24.65;15.90;;;14.80;99.90;;;;;;5013775;28;20034;-74
2021/08/26 07:13:17;;;;;;;21.38;14.55;;;14.80;99.90;;;;;;5012044;28;20038;-74
2021/08/26 07:15:43;;;;;;;22.02;13.90;;;14.90;99.90;;;;;;5012478;28;20058;-74
2021/08/26 07:18:09;;;;;;;26.63;15.55;;;14.80;99.90;;;;;;5011643;28;20104;-75
2021/08/26 07:20:35;;;;;;;26.35;14.38;;;14.90;99.90;;;;;;5012757;28;20116;-75
2021/08/26 07:23:00;;;;;;;23.48;13.07;;;15.00;99.90;;;;;;5012564;28;20117;-74
2021/08/26 07:25:26;;;;;;;23.55;14.05;;;15.10;99.90;;;;;;5013159;28;20029;-73
2021/08/26 07:27:52;;;;;;;20.17;14.23;;;15.10;99.90;;;;;;5013187;28;20041;-73
2021/08/26 07:30:18;;;;;;;21.00;14.25;;;15.00;99.90;;;;;;4996075;28;20100;-74
2021/08/26 07:32:44;;;;;;;21.05;14.23;;;15.00;99.90;;;;;;5028212;28;20034;-73
2021/08/26 07:35:10;;;;;;;22.15;14.25;;;15.00;99.90;;;;;;5012271;28;20066;-73
2021/08/26 07:37:36;;;;;;;19.77;13.95;;;15.10;99.90;;;;;;5013483;28;20156;-73
2021/08/26 07:40:03;;;;;;;20.20;13.88;;;15.10;99.90;;;;;;5012206;28;20498;-73
2021/08/26 07:42:29;;;;;;;24.30;13.90;;;15.10;99.90;;;;;;5013146;28;20037;-73
2021/08/26 07:45:02;;;;;;;19.52;13.50;;;15.20;99.90;;;;;;5013585;28;20026;-71
2021/08/26 07:47:31;;;;;;;19.80;14.13;;;15.30;99.90;;;;;;5012037;28;20172;-72
2021/08/26 07:49:57;;;;;;;20.92;13.00;;;15.30;99.90;;;;;;5028319;28;20479;-72
2021/08/26 07:52:24;;;;;;;20.35;13.40;;;15.50;99.90;;;;;;5011603;28;20057;-72
2021/08/26 07:54:50;;;;;;;24.00;14.57;;;15.60;99.90;;;;;;5012090;28;20390;-72
2021/08/26 07:57:16;;;;;;;16.30;12.13;;;15.60;99.90;;;;;;4999089;28;20038;-72
2021/08/26 07:59:42;;;;;;;19.45;11.48;;;15.80;99.90;;;;;;4993296;28;20124;-72
2021/08/26 08:02:07;;;;;;;14.13;9.68;;;15.80;99.90;;;;;;4992026;28;20045;-72
2021/08/26 08:04:33;;;;;;;17.63;10.65;;;15.90;99.90;;;;;;5002269;28;20025;-73
2021/08/26 08:07:00;;;;;;;16.02;10.45;;;16.00;99.90;;;;;;5011524;28;20060;-73
2021/08/26 08:09:26;;;;;;;15.10;9.90;;;16.10;99.90;;;;;;5012620;28;20041;-73
2021/08/26 08:11:52;;;;;;;15.73;9.95;;;16.10;99.90;;;;;;5011668;28;20038;-73
2021/08/26 08:14:18;;;;;;;18.88;11.15;;;16.20;99.90;;;;;;5012537;28;20049;-72
2021/08/26 08:16:43;;;;;;;14.57;9.65;;;16.40;99.90;;;;;;5012751;28;20434;-72
2021/08/26 08:19:10;;;;;;;14.35;8.77;;;16.50;99.90;;;;;;5012536;28;20038;-72
2021/08/26 08:21:36;;;;;;;12.18;8.65;;;16.60;99.90;;;;;;5012793;28;20040;-71
2021/08/26 08:24:02;;;;;;;15.57;7.43;;;16.70;99.90;;;;;;4995024;28;20038;-72
2021/08/26 08:26:28;;;;;;;13.27;7.65;;;16.90;99.90;;;;;;5012295;28;20438;-71
2021/08/26 08:28:54;;;;;;;9.40;6.35;;;17.00;99.90;;;;;;5011354;28;20450;-72
2021/08/26 08:31:19;;;;;;;10.32;5.50;;;17.10;99.90;;;;;;5011888;28;20038;-72
2021/08/26 08:33:46;;;;;;;7.75;4.25;;;17.40;99.90;;;;;;5012150;28;20034;-72
2021/08/26 08:36:13;;;;;;;6.80;3.65;;;17.50;99.90;;;;;;5012615;28;20617;-71
2021/08/26 08:38:39;;;;;;;5.47;3.20;;;17.60;99.90;;;;;;5011194;28;20041;-72
2021/08/26 08:41:06;;;;;;;7.22;3.22;;;17.70;99.90;;;;;;5012508;28;20030;-72
2021/08/26 08:43:35;;;;;;;6.30;2.65;;;17.80;99.90;;;;;;5012285;28;20049;-72
2021/08/26 08:46:05;;;;;;;9.13;3.05;;;17.70;99.90;;;;;;5012362;28;20426;-72
2021/08/26 08:48:38;;;;;;;6.30;2.70;;;17.80;99.90;;;;;;5010640;28;20026;-72
2021/08/26 08:51:04;;;;;;;5.78;2.72;;;17.80;99.90;;;;;;5011259;28;20046;-72
2021/08/26 08:53:30;;;;;;;7.13;2.75;;;17.80;99.90;;;;;;5011062;28;20764;-72
2021/08/26 08:55:57;;;;;;;6.38;2.50;;;17.80;99.90;;;;;;5011463;28;20056;-72
2021/08/26 08:58:23;;;;;;;6.00;2.58;;;17.70;99.90;;;;;;5012238;28;20372;-72
2021/08/26 09:00:48;;;;;;;9.23;2.50;;;17.80;99.90;;;;;;5011029;28;20088;-72
2021/08/26 09:03:14;;;;;;;7.68;2.83;;;17.80;99.90;;;;;;5011992;28;20034;-72
2021/08/26 09:06:00;;;;;;;7.65;2.95;;;17.90;99.90;;;;;;5011996;28;20034;-72
2021/08/26 09:08:29;;;;;;;5.50;2.35;;;17.80;99.90;;;;;;5012153;28;20067;-72
2021/08/26 09:11:10;;;;;;;6.95;2.70;;;18.00;99.90;;;;;;5010978;28;20553;-72
2021/08/26 09:13:37;;;;;;;8.27;3.00;;;18.10;99.90;;;;;;5010978;28;20041;-72
2021/08/26 09:16:04;;;;;;;8.63;2.75;;;18.10;99.90;;;;;;5012266;28;20030;-72
2021/08/26 09:18:30;;;;;;;5.50;2.55;;;18.40;99.90;;;;;;5010392;28;20406;-71
2021/08/26 09:20:57;;;;;;;6.93;2.63;;;18.70;99.90;;;;;;5012038;28;20045;-71
2021/08/26 09:23:26;;;;;;;6.18;2.40;;;18.90;99.90;;;;;;5012266;28;20045;-71
2021/08/26 09:25:55;;;;;;;6.78;2.80;;;18.80;99.90;;;;;;5010218;28;20061;-71
2021/08/26 09:28:30;;;;;;;5.25;2.40;;;18.60;99.90;;;;;;5012085;28;20040;-71
2021/08/26 09:31:18;;;;;;;7.72;2.90;;;18.60;99.90;;;;;;5010857;28;20104;-69
2021/08/26 09:33:58;;;;;;;5.97;2.72;;;18.50;99.90;;;;;;5012031;28;20037;-70
2021/08/26 09:36:50;;;;;;;5.47;2.42;;;18.40;99.90;;;;;;5012083;28;20048;-70
2021/08/26 09:39:29;;;;;;;5.90;2.50;;;18.40;99.90;;;;;;5011491;28;20030;-70
2021/08/26 09:42:04;;;;;;;5.78;2.47;;;18.60;99.90;;;;;;5014116;28;20038;-70
2021/08/26 09:44:36;;;;;;;5.45;2.63;;;18.80;99.90;;;;;;5014201;28;20037;-70
2021/08/26 09:47:09;;;;;;;6.38;2.65;;;19.00;99.90;;;;;;5014630;28;20025;-69
2021/08/26 09:49:39;;;;;;;7.60;2.60;;;19.00;99.90;;;;;;5014419;28;20113;-70
2021/08/26 09:52:12;;;;;;;8.05;2.75;;;19.00;99.90;;;;;;5015443;28;20067;-68
2021/08/26 09:54:39;;;;;;;6.35;2.72;;;19.30;98.70;;;;;;5014317;28;20034;-68
2021/08/26 09:57:26;;;;;;;4.93;2.63;;;19.30;98.40;;;;;;5015338;28;20113;-69
2021/08/26 09:59:56;;;;;;;5.25;2.63;;;19.40;98.20;;;;;;5014269;28;20034;-68
2021/08/26 10:02:23;;;;;;;5.55;2.65;;;19.50;96.80;;;;;;5013808;28;20037;-71
2021/08/26 10:04:50;;;;;;;7.00;2.58;;;19.70;98.00;;;;;;5013812;28;20034;-69
2021/08/26 10:07:17;;;;;;;5.55;2.28;;;19.90;97.50;;;;;;5013983;28;20033;-70
2021/08/26 10:09:44;;;;;;;7.60;3.25;;;20.10;98.00;;;;;;5013578;28;20137;-71
2021/08/26 10:12:13;;;;;;;5.15;2.30;;;20.00;96.60;;;;;;5017502;28;20028;-73
2021/08/26 10:14:49;;;;;;;6.53;2.30;;;19.80;96.50;;;;;;5030382;28;20115;-70
2021/08/26 10:17:16;;;;;;;6.60;3.28;;;19.90;97.20;;;;;;5014505;28;20046;-68
2021/08/26 10:19:43;;;;;;;5.40;2.60;;;19.80;96.50;;;;;;5029922;28;20128;-70
2021/08/26 10:22:09;;;;;;;8.10;2.67;;;19.80;97.30;;;;;;5014596;28;20572;-67
2021/08/26 10:24:36;;;;;;;5.60;2.20;;;19.90;97.30;;;;;;5013307;28;20042;-68
2021/08/26 10:27:17;;;;;;;6.68;2.42;;;20.00;96.70;;;;;;5014712;28;20030;-69
2021/08/26 10:29:51;;;;;;;6.93;2.47;;;20.20;97.60;;;;;;5013834;28;20096;-69
2021/08/26 10:32:24;;;;;;;6.63;2.22;;;20.00;97.00;;;;;;5013467;28;20041;-69
2021/08/26 10:35:11;;;;;;;6.03;2.15;;;20.10;97.20;;;;;;5014298;28;20042;-69
2021/08/26 10:37:54;;;;;;;8.15;2.00;;;20.20;96.40;;;;;;5014253;28;20414;-70
2021/08/26 10:40:26;;;;;;;5.20;2.70;;;20.30;96.70;;;;;;4997366;28;20038;-68
2021/08/26 10:42:53;;;;;;;5.25;1.90;;;20.60;96.00;;;;;;5014208;28;20034;-69
2021/08/26 10:45:29;;;;;;;5.07;1.80;;;20.70;95.50;;;;;;4996565;28;20441;-70
2021/08/26 10:47:56;;;;;;;3.80;1.73;;;21.00;95.10;;;;;;5013138;28;20026;-69
2021/08/26 10:50:36;;;;;;;5.78;2.17;;;21.20;94.80;;;;;;5014240;28;20034;-69
2021/08/26 10:53:13;;;;;;;4.20;2.08;;;21.30;94.60;;;;;;4996584;28;20117;-70
2021/08/26 10:55:39;;;;;;;5.75;1.63;;;21.60;94.10;;;;;;5013999;28;20041;-69
2021/08/26 10:58:26;;;;;;;4.30;1.63;;;21.70;94.20;;;;;;5013936;28;20407;-70
2021/08/26 11:00:59;;;;;;;5.90;2.03;;;21.70;93.30;;;;;;5013868;28;20095;-70
2021/08/26 11:03:34;;;;;;;4.65;2.10;;;21.50;93.10;;;;;;4996579;28;20042;-70
2021/08/26 11:06:20;;;;;;;6.15;2.33;;;21.20;93.80;;;;;;5013816;28;20038;-69
2021/08/26 11:08:52;;;;;;;5.88;2.83;;;21.10;93.70;;;;;;5006556;28;20038;-68
2021/08/26 11:11:27;;;;;;;5.95;2.28;;;21.10;94.10;;;;;;5013655;28;20113;-70
2021/08/26 11:14:23;;;;;;;6.50;2.90;;;21.10;93.40;;;;;;5013721;28;20046;-69
2021/08/26 11:16:51;;;;;;;7.82;2.85;;;20.90;93.20;;;;;;5008501;28;20049;-70
2021/08/26 11:19:17;;;;;;;6.65;3.72;;;20.80;93.30;;;;;;5013660;28;20033;-70
2021/08/26 11:24:26;;;;;;;8.10;2.33;;;20.80;93.70;;;;;;5013587;28;20548;-70
2021/08/26 11:27:29;;;;;;;6.55;2.28;;;20.80;93.90;;;;;;5013277;28;20491;-69
2021/08/26 11:29:55;;;;;;;5.45;2.58;;;20.70;93.60;;;;;;5013528;28;20072;-70
2021/08/26 11:32:24;;;;;;;5.80;2.30;;;20.40;93.30;;;;;;5013405;28;20088;-70
2021/08/26 11:34:57;;;;;;;4.80;2.20;;;20.30;93.40;;;;;;5013510;28;20038;-70
2021/08/26 11:37:25;;;;;;;5.43;2.10;;;20.10;93.90;;;;;;5013082;28;20046;-70
2021/08/26 11:40:07;;;;;;;5.88;2.33;;;19.90;94.60;;;;;;5013318;28;20061;-70
2021/08/26 11:42:48;;;;;;;6.25;2.15;;;19.80;94.50;;;;;;5013169;28;20091;-69
2021/08/26 11:45:25;;;;;;;;;;;19.90;95.10;;;;;;5012642;28;20038;-69
2021/08/26 11:48:04;;;;;;;8.07;2.45;;;20.00;94.30;;;;;;5013154;28;19913;-70
2021/08/26 11:50:36;;;;;;;4.28;2.00;;;20.40;94.40;;;;;;5013269;28;20033;-68
2021/08/26 11:53:11;;;;;;;5.20;2.28;;;21.10;93.20;;;;;;5012161;28;20040;-70
2021/08/26 11:55:50;;;;;;;4.18;1.77;;;21.20;92.80;;;;;;5011332;28;20457;-70
2021/08/26 11:58:17;;;;;;;5.50;2.40;;;21.40;92.60;;;;;;5012994;28;20081;-70
2021/08/26 12:00:50;;;;;;;5.30;2.55;;;21.80;92.80;;;;;;5012580;28;20439;-70
2021/08/26 12:03:22;;;;;;;6.20;1.98;;;22.00;91.90;;;;;;5013202;28;20026;-70
2021/08/26 12:05:48;;;;;;;4.40;1.70;;;22.40;91.30;;;;;;5011967;28;20084;-70
2021/08/26 12:08:14;;;;;;;4.95;1.85;;;22.10;91.90;;;;;;5027975;28;20386;-70
2021/08/26 12:10:45;;;;;;;3.85;1.85;;;21.80;92.50;;;;;;5014581;28;20517;-70
2021/08/26 12:13:15;;;;;;;3.63;1.38;;;21.60;92.00;;;;;;5032423;28;20037;-70
2021/08/26 12:15:50;;;;;;;4.93;1.55;;;21.40;91.60;;;;;;5031064;28;20084;-70
2021/08/26 12:18:23;;;;;;;5.35;1.60;;;21.50;92.40;;;;;;5032132;28;20065;-70
2021/08/26 12:20:52;;;;;;;4.68;2.17;;;21.80;90.80;;;;;;5031746;28;20030;-70
2021/08/26 12:23:23;;;;;;;5.82;1.80;;;22.30;91.60;;;;;;5032332;28;20116;-70
2021/08/26 12:26:14;;;;;;;4.57;1.50;;;22.70;90.70;;;;;;5031130;28;20547;-68
2021/08/26 12:28:59;;;;;;;4.75;1.33;;;23.20;90.20;;;;;;5032153;28;20121;-69
2021/08/26 12:31:27;;;;;;;5.88;1.40;;;23.50;90.00;;;;;;5030942;28;20039;-70
2021/08/26 12:34:03;;;;;;;4.45;1.55;;;24.00;88.80;;;;;;5032529;28;20041;-70
2021/08/26 12:36:34;;;;;;;3.42;1.52;;;23.80;87.00;;;;;;5031125;28;20060;-69
2021/08/26 12:39:00;;;;;;;4.13;1.27;;;24.20;84.50;;;;;;5014860;28;20087;-69
2021/08/26 12:41:26;;;;;;;4.32;1.70;;;23.90;83.20;;;;;;5030782;28;20030;-70
2021/08/26 12:43:56;;;;;;;5.50;1.77;;;24.00;83.20;;;;;;5032060;28;20038;-69
2021/08/26 12:46:28;;;;;;;5.85;1.73;;;24.20;85.20;;;;;;5030571;28;20116;-69
2021/08/26 12:49:10;;;;;;;4.63;1.58;;;24.80;83.30;;;;;;5032305;28;20068;-69
2021/08/26 12:51:54;;;;;;;4.03;1.80;;;25.30;80.80;;;;;;5031686;28;20040;-69
2021/08/26 12:54:20;;;;;;;4.97;1.50;;;24.80;81.30;;;;;;5030590;28;20532;-69